createdAt,value
2016-06-05T00:00:04.242Z,19
2016-06-05T00:00:14.227Z,19
2016-06-05T00:00:24.227Z,18.9
2016-06-05T00:00:34.227Z,19
2016-06-05T00:00:44.211Z,19
2016-06-05T00:00:54.214Z,19
2016-06-05T00:01:04.230Z,19
2016-06-05T00:01:14.214Z,18.9
2016-06-05T00:01:24.198Z,19
2016-06-05T00:01:34.198Z,19
2016-06-05T00:01:44.198Z,18.9
2016-06-05T00:01:54.186Z,18.9
2016-06-05T00:02:04.186Z,19
2016-06-05T00:02:14.186Z,18.9
2016-06-05T00:02:24.170Z,19
2016-06-05T00:02:34.170Z,19
2016-06-05T00:02:44.170Z,18.9
2016-06-05T00:02:54.172Z,19
2016-06-05T00:03:04.157Z,19
2016-06-05T00:03:14.157Z,18.9
2016-06-05T00:03:24.141Z,18.9
2016-06-05T00:03:34.141Z,19
2016-06-05T00:03:44.141Z,19
2016-06-05T00:03:54.144Z,18.9
2016-06-05T00:04:04.128Z,18.9
2016-06-05T00:04:14.128Z,18.9
2016-06-05T00:04:24.128Z,19
2016-06-05T00:04:34.113Z,19
2016-06-05T00:04:44.113Z,18.9
2016-06-05T00:04:54.116Z,19
2016-06-05T00:05:04.100Z,18.9
2016-06-05T00:05:14.100Z,18.9
2016-06-05T00:05:24.100Z,18.9
2016-06-05T00:05:34.100Z,18.9
2016-06-05T00:05:44.084Z,18.9
2016-06-05T00:05:54.087Z,18.9
2016-06-05T00:06:04.072Z,18.9
2016-06-05T00:06:14.072Z,18.9
2016-06-05T00:06:24.072Z,18.9
2016-06-05T00:06:34.056Z,18.9
2016-06-05T00:06:44.056Z,18.9
2016-06-05T00:06:54.058Z,18.9
2016-06-05T00:07:04.058Z,19
2016-06-05T00:07:14.043Z,18.9
2016-06-05T00:07:24.043Z,18.9
2016-06-05T00:07:34.043Z,18.9
2016-06-05T00:07:44.027Z,18.9
2016-06-05T00:07:54.029Z,18.9
2016-06-05T00:08:04.029Z,19
2016-06-05T00:08:14.013Z,18.9
2016-06-05T00:08:24.013Z,18.9
2016-06-05T00:08:34.013Z,18.9
2016-06-05T00:08:43.998Z,19
2016-06-05T00:08:54.017Z,19
2016-06-05T00:09:04.002Z,19
2016-06-05T00:09:14.002Z,18.9
2016-06-05T00:09:23.986Z,18.9
2016-06-05T00:09:33.986Z,18.9
2016-06-05T00:09:43.986Z,19
2016-06-05T00:09:53.972Z,19
2016-06-05T00:10:03.972Z,19
2016-06-05T00:10:13.972Z,18.9
2016-06-05T00:10:23.957Z,19
2016-06-05T00:10:33.957Z,18.9
2016-06-05T00:10:43.957Z,19
2016-06-05T00:10:53.944Z,18.9
2016-06-05T00:11:03.944Z,19
2016-06-05T00:11:13.944Z,18.9
2016-06-05T00:11:23.944Z,18.9
2016-06-05T00:11:33.929Z,19
2016-06-05T00:11:43.929Z,18.8
2016-06-05T00:11:53.932Z,18.9
2016-06-05T00:12:03.916Z,18.9
2016-06-05T00:12:13.916Z,18.9
2016-06-05T00:12:23.916Z,18.9
2016-06-05T00:12:33.900Z,18.9
2016-06-05T00:12:43.900Z,18.9
2016-06-05T00:12:54.216Z,18.9
2016-06-05T00:13:03.935Z,18.9
2016-06-05T00:13:13.888Z,18.8
2016-06-05T00:13:23.888Z,18.9
2016-06-05T00:13:34.263Z,18.7
2016-06-05T00:13:43.872Z,18.8
2016-06-05T00:13:53.874Z,18.9
2016-06-05T00:14:03.858Z,18.8
2016-06-05T00:14:13.858Z,18.9
2016-06-05T00:14:23.858Z,18.8
2016-06-05T00:14:33.858Z,18.9
2016-06-05T00:14:43.843Z,18.9
2016-06-05T00:14:53.845Z,18.8
2016-06-05T00:15:03.845Z,18.9
2016-06-05T00:15:13.829Z,18.7
2016-06-05T00:15:23.829Z,18.7
2016-06-05T00:15:33.829Z,18.8
2016-06-05T00:15:43.814Z,18.8
2016-06-05T00:15:53.817Z,18.9
2016-06-05T00:16:03.817Z,18.8
2016-06-05T00:16:13.801Z,18.8
2016-06-05T00:16:23.801Z,18.8
2016-06-05T00:16:33.801Z,18.8
2016-06-05T00:16:43.801Z,18.8
2016-06-05T00:16:53.788Z,18.8
2016-06-05T00:17:03.788Z,18.9
2016-06-05T00:17:13.788Z,18.8
2016-06-05T00:17:23.773Z,18.9
2016-06-05T00:17:33.773Z,18.9
2016-06-05T00:17:43.773Z,18.9
2016-06-05T00:17:53.776Z,18.8
2016-06-05T00:18:03.760Z,18.9
2016-06-05T00:18:13.760Z,18.9
2016-06-05T00:18:23.744Z,18.8
2016-06-05T00:18:33.744Z,18.9
2016-06-05T00:18:51.607Z,18.8
2016-06-05T00:19:01.591Z,18.8
2016-06-05T00:19:11.591Z,18.8
2016-06-05T00:19:21.591Z,18.9
2016-06-05T00:19:31.576Z,18.8
2016-06-05T00:19:41.576Z,18.9
2016-06-05T00:19:51.578Z,18.8
2016-06-05T00:20:01.562Z,18.8
2016-06-05T00:20:11.562Z,18.8
2016-06-05T00:20:21.562Z,18.9
2016-06-05T00:20:31.546Z,18.9
2016-06-05T00:20:41.546Z,18.8
2016-06-05T00:20:51.549Z,18.8
2016-06-05T00:21:01.534Z,18.9
2016-06-05T00:21:11.534Z,18.8
2016-06-05T00:21:21.534Z,18.7
2016-06-05T00:21:31.534Z,18.8
2016-06-05T00:21:41.518Z,18.8
2016-06-05T00:21:51.521Z,18.8
2016-06-05T00:22:01.521Z,18.8
2016-06-05T00:22:11.505Z,18.8
2016-06-05T00:22:21.505Z,18.8
2016-06-05T00:22:31.505Z,18.8
2016-06-05T00:22:41.490Z,18.8
2016-06-05T00:22:51.492Z,18.8
2016-06-05T00:23:01.492Z,18.8
2016-06-05T00:23:11.492Z,18.8
2016-06-05T00:23:21.476Z,18.8
2016-06-05T00:23:31.476Z,18.8
2016-06-05T00:23:41.476Z,18.8
2016-06-05T00:23:51.464Z,18.9
2016-06-05T00:24:01.464Z,18.9
2016-06-05T00:24:11.464Z,18.8
2016-06-05T00:24:21.448Z,18.8
2016-06-05T00:24:31.448Z,18.8
2016-06-05T00:24:41.448Z,18.7
2016-06-05T00:24:51.467Z,18.8
2016-06-05T00:25:01.435Z,18.7
2016-06-05T00:25:11.435Z,18.8
2016-06-05T00:25:21.420Z,18.7
2016-06-05T00:25:31.420Z,18.8
2016-06-05T00:25:41.420Z,18.8
2016-06-05T00:25:51.423Z,18.7
2016-06-05T00:26:01.407Z,18.8
2016-06-05T00:26:11.407Z,18.7
2016-06-05T00:26:21.407Z,18.8
2016-06-05T00:26:31.391Z,18.7
2016-06-05T00:26:41.391Z,18.7
2016-06-05T00:26:51.393Z,18.7
2016-06-05T00:27:01.378Z,18.7
2016-06-05T00:27:11.378Z,18.8
2016-06-05T00:27:21.378Z,18.7
2016-06-05T00:27:32.143Z,18.8
2016-06-05T00:27:41.362Z,18.7
2016-06-05T00:27:51.365Z,18.7
2016-06-05T00:28:01.350Z,18.7
2016-06-05T00:28:11.350Z,18.8
2016-06-05T00:28:21.350Z,18.8
2016-06-05T00:28:31.334Z,18.8
2016-06-05T00:28:41.334Z,18.7
2016-06-05T00:28:51.336Z,18.7
2016-06-05T00:29:01.336Z,18.7
2016-06-05T00:29:11.320Z,18.7
2016-06-05T00:29:21.320Z,18.7
2016-06-05T00:29:31.320Z,18.7
2016-06-05T00:29:41.305Z,18.8
2016-06-05T00:29:51.308Z,18.7
2016-06-05T00:30:01.308Z,18.7
2016-06-05T00:30:11.292Z,18.8
2016-06-05T00:30:21.292Z,18.8
2016-06-05T00:30:31.292Z,18.8
2016-06-05T00:30:41.292Z,18.7
2016-06-05T00:30:51.279Z,18.7
2016-06-05T00:31:01.279Z,18.7
2016-06-05T00:31:11.264Z,18.7
2016-06-05T00:31:21.264Z,18.7
2016-06-05T00:31:31.264Z,18.7
2016-06-05T00:31:41.264Z,18.7
2016-06-05T00:31:51.250Z,18.7
2016-06-05T00:32:01.250Z,18.8
2016-06-05T00:32:11.250Z,18.7
2016-06-05T00:32:21.235Z,18.7
2016-06-05T00:32:31.235Z,18.7
2016-06-05T00:32:41.235Z,18.7
2016-06-05T00:32:51.222Z,18.7
2016-06-05T00:33:01.222Z,18.7
2016-06-05T00:33:11.222Z,18.7
2016-06-05T00:33:21.206Z,18.7
2016-06-05T00:33:31.206Z,18.7
2016-06-05T00:33:41.206Z,18.7
2016-06-05T00:33:51.194Z,18.8
2016-06-05T00:34:01.194Z,18.7
2016-06-05T00:34:11.194Z,18.8
2016-06-05T00:34:21.194Z,18.7
2016-06-05T00:34:31.178Z,18.7
2016-06-05T00:34:41.178Z,18.7
2016-06-05T00:34:51.180Z,18.7
2016-06-05T00:35:01.164Z,18.7
2016-06-05T00:35:11.164Z,18.7
2016-06-05T00:35:21.164Z,18.6
2016-06-05T00:35:31.164Z,18.6
2016-06-05T00:35:41.149Z,18.7
2016-06-05T00:35:51.152Z,18.7
2016-06-05T00:36:01.136Z,18.7
2016-06-05T00:36:11.136Z,18.7
2016-06-05T00:36:21.136Z,18.7
2016-06-05T00:36:31.121Z,18.7
2016-06-05T00:36:41.121Z,18.7
2016-06-05T00:36:51.124Z,18.6
2016-06-05T00:37:01.124Z,18.7
2016-06-05T00:37:11.124Z,18.7
2016-06-05T00:37:21.108Z,18.7
2016-06-05T00:37:31.108Z,18.7
2016-06-05T00:37:41.092Z,18.7
2016-06-05T00:37:51.095Z,18.7
2016-06-05T00:38:01.095Z,18.7
2016-06-05T00:38:11.080Z,18.7
2016-06-05T00:38:21.080Z,18.7
2016-06-05T00:38:31.080Z,18.7
2016-06-05T00:38:41.064Z,18.7
2016-06-05T00:38:51.066Z,18.7
2016-06-05T00:39:01.066Z,18.7
2016-06-05T00:39:11.066Z,18.6
2016-06-05T00:39:21.050Z,18.7
2016-06-05T00:39:31.050Z,18.6
2016-06-05T00:39:41.035Z,18.7
2016-06-05T00:39:51.038Z,18.7
2016-06-05T00:40:01.038Z,18.7
2016-06-05T00:40:11.038Z,18.7
2016-06-05T00:40:21.038Z,18.7
2016-06-05T00:40:31.022Z,18.7
2016-06-05T00:40:41.022Z,18.7
2016-06-05T00:40:51.010Z,18.7
2016-06-05T00:41:01.010Z,18.7
2016-06-05T00:41:11.010Z,18.7
2016-06-05T00:41:20.994Z,18.8
2016-06-05T00:41:30.994Z,18.7
2016-06-05T00:41:40.994Z,18.6
2016-06-05T00:41:50.981Z,18.7
2016-06-05T00:42:00.981Z,18.7
2016-06-05T00:42:10.981Z,18.7
2016-06-05T00:42:20.966Z,18.7
2016-06-05T00:42:30.966Z,18.7
2016-06-05T00:42:41.075Z,18.7
2016-06-05T00:42:50.968Z,18.7
2016-06-05T00:43:00.952Z,18.6
2016-06-05T00:43:10.952Z,18.7
2016-06-05T00:43:20.952Z,18.7
2016-06-05T00:43:30.936Z,18.7
2016-06-05T00:43:40.936Z,18.6
2016-06-05T00:43:50.938Z,18.7
2016-06-05T00:44:00.923Z,18.7
2016-06-05T00:44:10.923Z,18.8
2016-06-05T00:44:20.923Z,18.7
2016-06-05T00:44:30.907Z,18.7
2016-06-05T00:44:40.907Z,18.7
2016-06-05T00:44:50.911Z,18.7
2016-06-05T00:45:00.911Z,18.7
2016-06-05T00:45:10.896Z,18.7
2016-06-05T00:45:20.896Z,18.8
2016-06-05T00:45:30.896Z,18.7
2016-06-05T00:45:40.880Z,18.7
2016-06-05T00:45:50.882Z,18.7
2016-06-05T00:46:00.882Z,18.7
2016-06-05T00:46:10.866Z,18.7
2016-06-05T00:46:20.866Z,18.7
2016-06-05T00:46:30.866Z,18.7
2016-06-05T00:46:40.851Z,18.8
2016-06-05T00:46:50.853Z,18.7
2016-06-05T00:47:00.853Z,18.7
2016-06-05T00:47:10.837Z,18.7
2016-06-05T00:47:20.837Z,18.7
2016-06-05T00:47:30.837Z,18.7
2016-06-05T00:47:40.837Z,18.7
2016-06-05T00:47:50.824Z,18.7
2016-06-05T00:48:00.824Z,18.8
2016-06-05T00:48:10.824Z,18.7
2016-06-05T00:48:20.809Z,18.7
2016-06-05T00:48:30.809Z,18.8
2016-06-05T00:48:40.793Z,18.7
2016-06-05T00:48:50.796Z,18.8
2016-06-05T00:49:00.796Z,18.8
2016-06-05T00:49:10.796Z,18.7
2016-06-05T00:49:20.781Z,18.7
2016-06-05T00:49:30.781Z,18.7
2016-06-05T00:49:40.781Z,18.7
2016-06-05T00:49:50.784Z,18.7
2016-06-05T00:50:00.768Z,18.8
2016-06-05T00:50:10.768Z,18.7
2016-06-05T00:50:20.768Z,18.8
2016-06-05T00:50:30.752Z,18.7
2016-06-05T00:50:40.752Z,18.8
2016-06-05T00:50:50.755Z,18.7
2016-06-05T00:51:00.740Z,18.8
2016-06-05T00:51:10.740Z,18.7
2016-06-05T00:51:20.740Z,18.7
2016-06-05T00:51:30.724Z,18.8
2016-06-05T00:51:40.724Z,18.7
2016-06-05T00:51:50.726Z,18.7
2016-06-05T00:52:00.710Z,18.7
2016-06-05T00:52:10.710Z,18.7
2016-06-05T00:52:20.710Z,18.7
2016-06-05T00:52:30.710Z,18.7
2016-06-05T00:52:40.695Z,18.7
2016-06-05T00:52:50.698Z,18.7
2016-06-05T00:53:00.682Z,18.8
2016-06-05T00:53:10.682Z,18.8
2016-06-05T00:53:20.682Z,18.7
2016-06-05T00:53:30.682Z,18.7
2016-06-05T00:53:40.667Z,18.8
2016-06-05T00:53:50.670Z,18.8
2016-06-05T00:54:00.654Z,18.8
2016-06-05T00:54:10.654Z,18.7
2016-06-05T00:54:20.654Z,18.7
2016-06-05T00:54:30.654Z,18.7
2016-06-05T00:54:40.654Z,18.8
2016-06-05T00:54:50.640Z,18.9
2016-06-05T00:55:00.640Z,18.8
2016-06-05T00:55:10.625Z,18.8
2016-06-05T00:55:20.625Z,18.8
2016-06-05T00:55:30.625Z,18.8
2016-06-05T00:55:40.609Z,18.8
2016-06-05T00:55:50.612Z,18.9
2016-06-05T00:56:00.612Z,18.8
2016-06-05T00:56:10.596Z,18.9
2016-06-05T00:56:20.596Z,18.8
2016-06-05T00:56:30.596Z,18.8
2016-06-05T00:56:40.596Z,18.8
2016-06-05T00:56:50.584Z,18.8
2016-06-05T00:57:00.584Z,18.8
2016-06-05T00:57:10.584Z,18.8
2016-06-05T00:57:20.568Z,18.8
2016-06-05T00:57:30.631Z,18.8
2016-06-05T00:57:40.568Z,18.9
2016-06-05T00:57:50.556Z,18.8
2016-06-05T00:58:00.571Z,18.8
2016-06-05T00:58:10.556Z,18.8
2016-06-05T00:58:20.602Z,18.7
2016-06-05T00:58:30.540Z,18.7
2016-06-05T00:58:41.243Z,18.7
2016-06-05T00:58:50.526Z,18.8
2016-06-05T00:59:00.526Z,18.8
2016-06-05T00:59:10.526Z,18.7
2016-06-05T00:59:20.511Z,18.8
2016-06-05T00:59:30.511Z,18.7
2016-06-05T00:59:40.511Z,18.7
2016-06-05T00:59:50.498Z,18.7
2016-06-05T01:00:00.498Z,18.7
2016-06-05T01:00:10.498Z,18.7
2016-06-05T01:00:20.498Z,18.7
2016-06-05T01:00:30.482Z,18.8
2016-06-05T01:00:40.482Z,18.8
2016-06-05T01:00:50.485Z,18.7
2016-06-05T01:01:00.470Z,18.8
2016-06-05T01:01:10.470Z,18.7
2016-06-05T01:01:20.470Z,18.8
2016-06-05T01:01:30.454Z,18.8
2016-06-05T01:01:40.454Z,18.8
2016-06-05T01:01:50.456Z,18.7
2016-06-05T01:02:00.456Z,18.7
2016-06-05T01:02:10.441Z,18.8
2016-06-05T01:02:20.441Z,18.8
2016-06-05T01:02:30.425Z,18.7
2016-06-05T01:02:40.425Z,18.7
2016-06-05T01:02:50.427Z,18.7
2016-06-05T01:03:00.427Z,18.8
2016-06-05T01:03:10.411Z,18.7
2016-06-05T01:03:20.411Z,18.7
2016-06-05T01:03:30.411Z,18.8
2016-06-05T01:03:40.396Z,18.8
2016-06-05T01:03:50.400Z,18.7
2016-06-05T01:04:00.400Z,18.8
2016-06-05T01:04:10.384Z,18.8
2016-06-05T01:04:20.384Z,18.7
2016-06-05T01:04:30.384Z,18.8
2016-06-05T01:04:40.384Z,18.7
2016-06-05T01:04:50.370Z,18.7
2016-06-05T01:05:00.370Z,18.8
2016-06-05T01:05:10.370Z,18.7
2016-06-05T01:05:20.355Z,18.8
2016-06-05T01:05:30.355Z,18.7
2016-06-05T01:05:40.355Z,18.7
2016-06-05T01:05:50.342Z,18.7
2016-06-05T01:06:00.342Z,18.7
2016-06-05T01:06:10.342Z,18.7
2016-06-05T01:06:20.327Z,18.7
2016-06-05T01:06:30.327Z,18.7
2016-06-05T01:06:40.327Z,18.7
2016-06-05T01:06:50.314Z,18.7
2016-06-05T01:07:00.314Z,18.8
2016-06-05T01:07:10.314Z,18.7
2016-06-05T01:07:20.298Z,18.7
2016-06-05T01:07:30.298Z,18.7
2016-06-05T01:07:40.298Z,18.7
2016-06-05T01:07:50.300Z,18.7
2016-06-05T01:08:00.316Z,18.7
2016-06-05T01:08:10.285Z,18.7
2016-06-05T01:08:20.285Z,18.6
2016-06-05T01:08:30.285Z,18.6
2016-06-05T01:08:40.269Z,18.7
2016-06-05T01:08:50.272Z,18.6
2016-06-05T01:09:00.256Z,18.7
2016-06-05T01:09:10.256Z,18.6
2016-06-05T01:09:20.256Z,18.6
2016-06-05T01:09:30.241Z,18.6
2016-06-05T01:09:40.241Z,18.7
2016-06-05T01:09:50.244Z,18.6
2016-06-05T01:10:00.228Z,18.6
2016-06-05T01:10:10.228Z,18.6
2016-06-05T01:10:20.228Z,18.6
2016-06-05T01:10:30.213Z,18.7
2016-06-05T01:10:40.213Z,18.6
2016-06-05T01:10:50.216Z,18.6
2016-06-05T01:11:00.200Z,18.6
2016-06-05T01:11:10.200Z,18.6
2016-06-05T01:11:20.200Z,18.6
2016-06-05T01:11:30.184Z,18.7
2016-06-05T01:11:40.184Z,18.7
2016-06-05T01:11:50.186Z,18.7
2016-06-05T01:12:00.186Z,18.5
2016-06-05T01:12:10.171Z,18.7
2016-06-05T01:12:20.171Z,18.6
2016-06-05T01:12:30.327Z,18.5
2016-06-05T01:12:41.093Z,18.6
2016-06-05T01:12:50.155Z,18.5
2016-06-05T01:13:00.158Z,18.6
2016-06-05T01:13:10.142Z,18.6
2016-06-05T01:13:20.142Z,18.6
2016-06-05T01:13:30.455Z,18.6
2016-06-05T01:13:40.142Z,18.6
2016-06-05T01:13:50.127Z,18.6
2016-06-05T01:14:00.129Z,18.6
2016-06-05T01:14:10.129Z,18.6
2016-06-05T01:14:20.113Z,18.6
2016-06-05T01:14:30.160Z,18.6
2016-06-05T01:14:40.113Z,18.5
2016-06-05T01:14:50.098Z,18.6
2016-06-05T01:15:00.101Z,18.5
2016-06-05T01:15:10.101Z,18.5
2016-06-05T01:15:20.085Z,18.5
2016-06-05T01:15:30.085Z,18.5
2016-06-05T01:15:40.085Z,18.5
2016-06-05T01:15:50.069Z,18.5
2016-06-05T01:16:00.072Z,18.5
2016-06-05T01:16:10.072Z,18.5
2016-06-05T01:16:20.072Z,18.5
2016-06-05T01:16:30.057Z,18.5
2016-06-05T01:16:40.057Z,18.5
2016-06-05T01:16:50.057Z,18.5
2016-06-05T01:17:00.043Z,18.4
2016-06-05T01:17:10.043Z,18.5
2016-06-05T01:17:20.027Z,18.4
2016-06-05T01:17:30.027Z,18.5
2016-06-05T01:17:40.027Z,18.5
2016-06-05T01:17:50.027Z,18.5
2016-06-05T01:18:00.015Z,18.4
2016-06-05T01:18:10.015Z,18.5
2016-06-05T01:18:20.015Z,18.5
2016-06-05T01:18:29.999Z,18.4
2016-06-05T01:18:39.999Z,18.5
2016-06-05T01:18:49.999Z,18.5
2016-06-05T01:18:59.987Z,18.5
2016-06-05T01:19:09.987Z,18.4
2016-06-05T01:19:19.987Z,18.5
2016-06-05T01:19:29.987Z,18.5
2016-06-05T01:19:39.971Z,18.4
2016-06-05T01:19:50.002Z,18.5
2016-06-05T01:19:59.958Z,18.5
2016-06-05T01:20:09.958Z,18.5
2016-06-05T01:20:19.958Z,18.5
2016-06-05T01:20:29.958Z,18.5
2016-06-05T01:20:39.943Z,18.4
2016-06-05T01:20:49.943Z,18.5
2016-06-05T01:20:59.946Z,18.4
2016-06-05T01:21:09.930Z,18.5
2016-06-05T01:21:19.930Z,18.4
2016-06-05T01:21:29.930Z,18.4
2016-06-05T01:21:39.914Z,18.5
2016-06-05T01:21:49.914Z,18.4
2016-06-05T01:21:59.916Z,18.4
2016-06-05T01:22:09.901Z,18.4
2016-06-05T01:22:19.901Z,18.5
2016-06-05T01:22:29.901Z,18.4
2016-06-05T01:22:39.901Z,18.5
2016-06-05T01:22:49.885Z,18.5
2016-06-05T01:22:59.888Z,18.4
2016-06-05T01:23:09.873Z,18.4
2016-06-05T01:23:19.873Z,18.4
2016-06-05T01:23:29.873Z,18.4
2016-06-05T01:23:39.873Z,18.4
2016-06-05T01:23:49.857Z,18.5
2016-06-05T01:23:59.859Z,18.4
2016-06-05T01:24:09.859Z,18.5
2016-06-05T01:24:19.843Z,18.5
2016-06-05T01:24:29.843Z,18.4
2016-06-05T01:24:39.843Z,18.5
2016-06-05T01:24:49.828Z,18.4
2016-06-05T01:24:59.831Z,18.4
2016-06-05T01:25:09.831Z,18.5
2016-06-05T01:25:19.815Z,18.4
2016-06-05T01:25:29.815Z,18.3
2016-06-05T01:25:39.815Z,18.3
2016-06-05T01:25:49.799Z,18.3
2016-06-05T01:25:59.802Z,18.4
2016-06-05T01:26:09.802Z,18.4
2016-06-05T01:26:19.787Z,18.3
2016-06-05T01:26:29.787Z,18.3
2016-06-05T01:26:39.787Z,18.3
2016-06-05T01:26:49.787Z,18.4
2016-06-05T01:26:59.773Z,18.3
2016-06-05T01:27:09.773Z,18.5
2016-06-05T01:27:19.773Z,18.5
2016-06-05T01:27:29.758Z,18.3
2016-06-05T01:27:39.758Z,18.4
2016-06-05T01:27:49.758Z,18.4
2016-06-05T01:27:59.745Z,18.4
2016-06-05T01:28:10.136Z,18.4
2016-06-05T01:28:19.745Z,18.4
2016-06-05T01:28:29.745Z,18.4
2016-06-05T01:28:39.729Z,18.4
2016-06-05T01:29:00.076Z,18.3
2016-06-05T01:29:10.076Z,18.3
2016-06-05T01:29:20.060Z,18.3
2016-06-05T01:29:30.060Z,18.3
2016-06-05T01:29:40.060Z,18.3
2016-06-05T01:29:50.045Z,18.4
2016-06-05T01:30:00.047Z,18.4
2016-06-05T01:30:10.047Z,18.3
2016-06-05T01:30:20.047Z,18.4
2016-06-05T01:30:30.031Z,18.4
2016-06-05T01:30:40.031Z,18.3
2016-06-05T01:30:50.031Z,18.4
2016-06-05T01:31:00.020Z,18.3
2016-06-05T01:31:10.020Z,18.4
2016-06-05T01:31:20.020Z,18.3
2016-06-05T01:31:30.004Z,18.3
2016-06-05T01:31:40.004Z,18.4
2016-06-05T01:31:50.004Z,18.4
2016-06-05T01:31:59.990Z,18.4
2016-06-05T01:32:09.990Z,18.3
2016-06-05T01:32:19.990Z,18.3
2016-06-05T01:32:29.975Z,18.3
2016-06-05T01:32:39.975Z,18.3
2016-06-05T01:32:49.975Z,18.3
2016-06-05T01:32:59.977Z,18.3
2016-06-05T01:33:09.961Z,18.4
2016-06-05T01:33:19.961Z,18.3
2016-06-05T01:33:29.961Z,18.4
2016-06-05T01:33:39.945Z,18.3
2016-06-05T01:33:49.945Z,18.3
2016-06-05T01:33:59.948Z,18.3
2016-06-05T01:34:09.933Z,18.3
2016-06-05T01:34:19.948Z,18.3
2016-06-05T01:34:29.933Z,18.3
2016-06-05T01:34:39.917Z,18.3
2016-06-05T01:34:49.917Z,18.4
2016-06-05T01:34:59.920Z,18.3
2016-06-05T01:35:09.905Z,18.3
2016-06-05T01:35:19.905Z,18.3
2016-06-05T01:35:29.905Z,18.4
2016-06-05T01:35:39.889Z,18.4
2016-06-05T01:35:49.889Z,18.3
2016-06-05T01:35:59.892Z,18.3
2016-06-05T01:36:09.892Z,18.3
2016-06-05T01:36:19.876Z,18.4
2016-06-05T01:36:29.876Z,18.4
2016-06-05T01:36:39.876Z,18.4
2016-06-05T01:36:49.861Z,18.4
2016-06-05T01:36:59.864Z,18.3
2016-06-05T01:37:09.864Z,18.4
2016-06-05T01:37:19.848Z,18.3
2016-06-05T01:37:29.848Z,18.3
2016-06-05T01:37:39.848Z,18.4
2016-06-05T01:37:49.832Z,18.4
2016-06-05T01:37:59.834Z,18.3
2016-06-05T01:38:09.834Z,18.3
2016-06-05T01:38:19.819Z,18.4
2016-06-05T01:38:29.819Z,18.3
2016-06-05T01:38:39.819Z,18.3
2016-06-05T01:38:49.803Z,18.3
2016-06-05T01:38:59.805Z,18.3
2016-06-05T01:39:09.805Z,18.4
2016-06-05T01:39:19.790Z,18.3
2016-06-05T01:39:29.790Z,18.3
2016-06-05T01:39:39.790Z,18.3
2016-06-05T01:39:49.774Z,18.3
2016-06-05T01:39:59.778Z,18.3
2016-06-05T01:40:09.778Z,18.3
2016-06-05T01:40:19.778Z,18.3
2016-06-05T01:40:29.762Z,18.3
2016-06-05T01:40:39.762Z,18.3
2016-06-05T01:40:49.762Z,18.3
2016-06-05T01:40:59.749Z,18.3
2016-06-05T01:41:09.749Z,18.2
2016-06-05T01:41:19.749Z,18.3
2016-06-05T01:41:29.733Z,18.3
2016-06-05T01:41:39.733Z,18.2
2016-06-05T01:41:49.733Z,18.2
2016-06-05T01:41:59.720Z,18.3
2016-06-05T01:42:09.720Z,18.3
2016-06-05T01:42:19.720Z,18.3
2016-06-05T01:42:29.705Z,18.2
2016-06-05T01:42:39.705Z,18.3
2016-06-05T01:42:50.049Z,18.2
2016-06-05T01:42:59.708Z,18.3
2016-06-05T01:43:10.364Z,18.3
2016-06-05T01:43:19.848Z,18.2
2016-06-05T01:43:30.270Z,18.3
2016-06-05T01:43:39.677Z,18.2
2016-06-05T01:43:49.677Z,18.2
2016-06-05T01:43:59.680Z,18.2
2016-06-05T01:44:09.664Z,18.2
2016-06-05T01:44:19.664Z,18.2
2016-06-05T01:44:29.664Z,18.2
2016-06-05T01:44:39.648Z,18.3
2016-06-05T01:44:49.648Z,18.3
2016-06-05T01:44:59.650Z,18.2
2016-06-05T01:45:09.635Z,18.2
2016-06-05T01:45:19.635Z,18.3
2016-06-05T01:45:29.635Z,18.2
2016-06-05T01:45:39.619Z,18.2
2016-06-05T01:45:49.619Z,18.2
2016-06-05T01:45:59.621Z,18.2
2016-06-05T01:46:09.621Z,18.2
2016-06-05T01:46:19.605Z,18.2
2016-06-05T01:46:29.605Z,18.3
2016-06-05T01:46:39.605Z,18.2
2016-06-05T01:46:49.590Z,18.2
2016-06-05T01:46:59.593Z,18.1
2016-06-05T01:47:09.593Z,18.2
2016-06-05T01:47:19.577Z,18.2
2016-06-05T01:47:29.577Z,18.2
2016-06-05T01:47:39.577Z,18.2
2016-06-05T01:47:49.562Z,18.2
2016-06-05T01:47:59.580Z,18.3
2016-06-05T01:48:09.565Z,18.2
2016-06-05T01:48:19.549Z,18.2
2016-06-05T01:48:29.549Z,18.2
2016-06-05T01:48:39.549Z,18.2
2016-06-05T01:48:49.533Z,18.1
2016-06-05T01:48:59.535Z,18.1
2016-06-05T01:49:09.535Z,18.2
2016-06-05T01:49:19.520Z,18.1
2016-06-05T01:49:29.520Z,18.2
2016-06-05T01:49:39.520Z,18.1
2016-06-05T01:49:49.520Z,18.2
2016-06-05T01:49:59.508Z,18.3
2016-06-05T01:50:09.508Z,18.1
2016-06-05T01:50:19.508Z,18.3
2016-06-05T01:50:29.492Z,18.1
2016-06-05T01:50:39.492Z,18.2
2016-06-05T01:50:49.492Z,18.3
2016-06-05T01:50:59.479Z,18.2
2016-06-05T01:51:09.479Z,18.2
2016-06-05T01:51:19.479Z,18.2
2016-06-05T01:51:29.479Z,18.2
2016-06-05T01:51:39.463Z,18.2
2016-06-05T01:51:49.463Z,18.2
2016-06-05T01:51:59.466Z,18.1
2016-06-05T01:52:09.451Z,18.2
2016-06-05T01:52:19.451Z,18.2
2016-06-05T01:52:29.451Z,18.1
2016-06-05T01:52:39.435Z,18.2
2016-06-05T01:52:49.435Z,18.2
2016-06-05T01:52:59.437Z,18.2
2016-06-05T01:53:09.421Z,18.1
2016-06-05T01:53:19.421Z,18.2
2016-06-05T01:53:29.406Z,18.2
2016-06-05T01:53:39.406Z,18.1
2016-06-05T01:53:49.406Z,18.1
2016-06-05T01:53:59.409Z,18.1
2016-06-05T01:54:09.409Z,18.1
2016-06-05T01:54:19.393Z,18.1
2016-06-05T01:54:29.393Z,18
2016-06-05T01:54:39.377Z,18.1
2016-06-05T01:54:49.377Z,18.1
2016-06-05T01:54:59.380Z,18.1
2016-06-05T01:55:09.380Z,18.1
2016-06-05T01:55:19.365Z,18.1
2016-06-05T01:55:29.365Z,18.1
2016-06-05T01:55:39.349Z,18.1
2016-06-05T01:55:49.349Z,18.1
2016-06-05T01:55:59.352Z,17.9
2016-06-05T01:56:09.352Z,18.1
2016-06-05T01:56:19.337Z,18.1
2016-06-05T01:56:29.337Z,18.2
2016-06-05T01:56:39.337Z,18.1
2016-06-05T01:56:49.321Z,18.1
2016-06-05T01:56:59.323Z,18.1
2016-06-05T01:57:09.323Z,18
2016-06-05T01:57:19.307Z,18.1
2016-06-05T01:57:29.620Z,18
2016-06-05T01:57:39.307Z,18
2016-06-05T01:57:49.885Z,18.1
2016-06-05T01:57:59.778Z,18.1
2016-06-05T01:58:09.294Z,18.1
2016-06-05T01:58:19.278Z,18.1
2016-06-05T01:58:29.278Z,18.1
2016-06-05T01:58:39.325Z,18
2016-06-05T01:58:49.262Z,18
2016-06-05T01:58:59.265Z,18.1
2016-06-05T01:59:09.265Z,18
2016-06-05T01:59:19.265Z,18.2
2016-06-05T01:59:29.250Z,18
2016-06-05T01:59:39.250Z,18.1
2016-06-05T01:59:49.250Z,18.1
2016-06-05T01:59:59.238Z,18.1
2016-06-05T02:00:09.238Z,17.9
2016-06-05T02:00:19.223Z,18
2016-06-05T02:00:29.223Z,18
2016-06-05T02:00:39.223Z,18
2016-06-05T02:00:49.223Z,18
2016-06-05T02:00:59.209Z,18
2016-06-05T02:01:09.209Z,18
2016-06-05T02:01:19.209Z,18
2016-06-05T02:01:29.193Z,18.1
2016-06-05T02:01:39.193Z,18
2016-06-05T02:01:49.193Z,18
2016-06-05T02:01:59.181Z,18
2016-06-05T02:02:09.181Z,18.1
2016-06-05T02:02:19.181Z,18
2016-06-05T02:02:29.165Z,18
2016-06-05T02:02:39.165Z,18
2016-06-05T02:02:49.165Z,18
2016-06-05T02:02:59.168Z,18
2016-06-05T02:03:09.152Z,18
2016-06-05T02:03:19.152Z,18
2016-06-05T02:03:29.152Z,17.9
2016-06-05T02:03:39.137Z,18
2016-06-05T02:03:49.137Z,18.1
2016-06-05T02:03:59.139Z,17.9
2016-06-05T02:04:09.123Z,17.9
2016-06-05T02:04:19.123Z,18
2016-06-05T02:04:29.123Z,18
2016-06-05T02:04:39.108Z,18.1
2016-06-05T02:04:49.108Z,17.9
2016-06-05T02:04:59.111Z,18
2016-06-05T02:05:09.095Z,18.1
2016-06-05T02:05:19.095Z,18
2016-06-05T02:05:29.095Z,18
2016-06-05T02:05:39.079Z,18
2016-06-05T02:05:49.079Z,18
2016-06-05T02:05:59.081Z,17.9
2016-06-05T02:06:09.081Z,17.9
2016-06-05T02:06:19.066Z,18
2016-06-05T02:06:29.066Z,17.9
2016-06-05T02:06:39.050Z,17.9
2016-06-05T02:06:49.050Z,18
2016-06-05T02:06:59.053Z,18
2016-06-05T02:07:09.053Z,17.9
2016-06-05T02:07:19.037Z,18
2016-06-05T02:07:29.037Z,17.9
2016-06-05T02:07:39.037Z,17.9
2016-06-05T02:07:49.053Z,17.9
2016-06-05T02:07:59.025Z,18
2016-06-05T02:08:09.025Z,17.9
2016-06-05T02:08:19.009Z,17.9
2016-06-05T02:08:29.009Z,17.9
2016-06-05T02:08:39.009Z,17.9
2016-06-05T02:08:48.994Z,17.9
2016-06-05T02:08:58.996Z,17.9
2016-06-05T02:09:08.996Z,18
2016-06-05T02:09:18.996Z,18
2016-06-05T02:09:28.980Z,18
2016-06-05T02:09:38.980Z,17.9
2016-06-05T02:09:48.980Z,17.9
2016-06-05T02:09:58.967Z,18
2016-06-05T02:10:08.967Z,17.9
2016-06-05T02:10:18.952Z,17.9
2016-06-05T02:10:28.952Z,17.9
2016-06-05T02:10:38.952Z,17.9
2016-06-05T02:10:48.952Z,17.9
2016-06-05T02:10:58.939Z,18
2016-06-05T02:11:08.939Z,17.9
2016-06-05T02:11:18.939Z,17.9
2016-06-05T02:11:28.923Z,17.9
2016-06-05T02:11:38.923Z,18
2016-06-05T02:11:48.923Z,17.9
2016-06-05T02:11:58.911Z,17.9
2016-06-05T02:12:08.911Z,18
2016-06-05T02:12:18.911Z,17.9
2016-06-05T02:12:28.895Z,17.9
2016-06-05T02:12:39.520Z,17.9
2016-06-05T02:12:48.911Z,17.9
2016-06-05T02:12:58.882Z,18
2016-06-05T02:13:09.366Z,17.9
2016-06-05T02:13:18.882Z,17.9
2016-06-05T02:13:29.069Z,17.9
2016-06-05T02:13:39.382Z,17.9
2016-06-05T02:13:48.866Z,17.9
2016-06-05T02:13:58.853Z,17.9
2016-06-05T02:14:08.853Z,17.9